首页
METAR-TAF:

METAR-TAF

机场 :

Pittsfield Municipal Airport

皮茨菲尔德, 马萨诸塞州, 美国

纬度: 42-25-38N, 经度: 073-17-21W, 海拔: 364米

当前天气观测

该预报发布于11分钟前的15:54 UTC
风速5节,风向东北
温度 1°C
湿度 75%
气压 1028 hPa
能見度: 16.1公里
阴天层高于1700英尺

METAR: KPSF 131554Z AUTO 05005KT 10SM OVC017 01/M03 A3035 RMK AO2 SLP291 T00111028

时间: 11:05 (16:05 UTC)

预报

该预报发布于4小时和23分钟前的11:42 UTC
预报有效从13日的 12点(UTC)到 14日的 12点(UTC)
风速3节,风向多变
能見度: 10公里
阴天层高于2500英尺
从 13日的 1800点(UTC)
风速5节,风向东转东南
能見度: 10公里
阴天层高于1500英尺
短暂存在
从 13日的 20点(UTC)到 13日的 24点(UTC)
能見度: 6.4公里
阴天层高于700英尺
小雨, 轻雾
从 14日的 0000点(UTC)
风速4节,风向
能見度: 3.2公里
阴天层高于700英尺
小雨, 轻雾
从 14日的 0900点(UTC)
风速6节,风向东转东北
能見度: 3.2公里
阴天层高于700英尺
小雨, 轻雾

TAF: KPSF 131142Z 1312/1412 VRB03KT P6SM OVC025 FM131800 12005KT P6SM OVC015 TEMPO 1320/1324 4SM -RA BR OVC007 FM140000 10004KT 2SM -RA BR OVC007 FM140900 06006KT 2SM -RA BR OVC007

超过4000个机场的气象观测和天气预报(METAR&TAF报告)。

可查询的气象台以黄色和红色小点在地图上表示。

将鼠标移到小点上方,可查看气象台名称。

然后点击查看天气观测和预报。

如需切换地图:点击带黑十字的绿色按钮放大地图;点击带横线的绿色按钮缩小地图;或者点击绿色箭头查看邻近地区的地图。


METAR-TAF: